sensor_id;sensor_type;location;lat;lon;timestamp;P1;durP1;ratioP1;P2;durP2;ratioP2
18302;SDS011;9277;37.980;23.748;2022-12-11T00:01:21;23.90;;;3.63;;
18302;SDS011;9277;37.980;23.748;2022-12-11T00:03:48;20.13;;;3.10;;
18302;SDS011;9277;37.980;23.748;2022-12-11T00:06:16;23.38;;;3.63;;
18302;SDS011;9277;37.980;23.748;2022-12-11T00:08:45;21.27;;;3.22;;
18302;SDS011;9277;37.980;23.748;2022-12-11T00:11:13;22.90;;;4.15;;
18302;SDS011;9277;37.980;23.748;2022-12-11T00:13:40;12.40;;;2.83;;
18302;SDS011;9277;37.980;23.748;2022-12-11T00:16:07;29.00;;;3.97;;
18302;SDS011;9277;37.980;23.748;2022-12-11T00:18:34;21.52;;;3.25;;
18302;SDS011;9277;37.980;23.748;2022-12-11T00:21:01;19.45;;;3.53;;
18302;SDS011;9277;37.980;23.748;2022-12-11T00:23:29;34.03;;;3.45;;
18302;SDS011;9277;37.980;23.748;2022-12-11T00:25:57;24.38;;;2.72;;
18302;SDS011;9277;37.980;23.748;2022-12-11T00:28:24;24.95;;;3.97;;
18302;SDS011;9277;37.980;23.748;2022-12-11T00:30:51;19.77;;;4.47;;
18302;SDS011;9277;37.980;23.748;2022-12-11T00:33:18;15.20;;;3.80;;
18302;SDS011;9277;37.980;23.748;2022-12-11T00:35:45;19.45;;;2.88;;
18302;SDS011;9277;37.980;23.748;2022-12-11T00:38:13;20.63;;;3.38;;
18302;SDS011;9277;37.980;23.748;2022-12-11T00:40:41;22.20;;;3.80;;
18302;SDS011;9277;37.980;23.748;2022-12-11T00:43:10;22.08;;;3.78;;
18302;SDS011;9277;37.980;23.748;2022-12-11T00:45:36;11.57;;;2.58;;
18302;SDS011;9277;37.980;23.748;2022-12-11T00:48:04;22.23;;;3.10;;
18302;SDS011;9277;37.980;23.748;2022-12-11T00:50:32;11.13;;;2.80;;
18302;SDS011;9277;37.980;23.748;2022-12-11T00:52:59;30.65;;;3.35;;
18302;SDS011;9277;37.980;23.748;2022-12-11T00:55:26;25.90;;;4.60;;
18302;SDS011;9277;37.980;23.748;2022-12-11T00:57:54;19.90;;;3.03;;
18302;SDS011;9277;37.980;23.748;2022-12-11T01:00:22;23.75;;;3.92;;
18302;SDS011;9277;37.980;23.748;2022-12-11T01:02:49;23.63;;;3.75;;
18302;SDS011;9277;37.980;23.748;2022-12-11T01:05:16;16.00;;;3.72;;
18302;SDS011;9277;37.980;23.748;2022-12-11T01:07:43;19.55;;;4.32;;
18302;SDS011;9277;37.980;23.748;2022-12-11T01:10:11;35.58;;;2.88;;
18302;SDS011;9277;37.980;23.748;2022-12-11T01:12:50;19.33;;;3.30;;
18302;SDS011;9277;37.980;23.748;2022-12-11T01:15:17;14.55;;;4.05;;
18302;SDS011;9277;37.980;23.748;2022-12-11T01:17:45;11.38;;;2.88;;
18302;SDS011;9277;37.980;23.748;2022-12-11T01:20:12;21.73;;;3.17;;
18302;SDS011;9277;37.980;23.748;2022-12-11T01:22:39;20.60;;;3.85;;
18302;SDS011;9277;37.980;23.748;2022-12-11T01:25:06;20.15;;;3.72;;
18302;SDS011;9277;37.980;23.748;2022-12-11T01:27:34;31.17;;;4.22;;
18302;SDS011;9277;37.980;23.748;2022-12-11T01:30:02;22.95;;;3.97;;
18302;SDS011;9277;37.980;23.748;2022-12-11T01:32:29;28.65;;;3.50;;
18302;SDS011;9277;37.980;23.748;2022-12-11T01:34:58;22.02;;;4.35;;
18302;SDS011;9277;37.980;23.748;2022-12-11T01:37:25;27.23;;;3.47;;
18302;SDS011;9277;37.980;23.748;2022-12-11T01:39:52;9.52;;;2.85;;
18302;SDS011;9277;37.980;23.748;2022-12-11T01:42:19;21.80;;;2.92;;
18302;SDS011;9277;37.980;23.748;2022-12-11T01:47:31;26.67;;;3.83;;
18302;SDS011;9277;37.980;23.748;2022-12-11T01:50:00;31.98;;;3.95;;
18302;SDS011;9277;37.980;23.748;2022-12-11T01:52:27;20.85;;;3.22;;
18302;SDS011;9277;37.980;23.748;2022-12-11T01:54:54;26.23;;;3.88;;
18302;SDS011;9277;37.980;23.748;2022-12-11T01:57:21;22.98;;;4.18;;
18302;SDS011;9277;37.980;23.748;2022-12-11T01:59:48;35.90;;;4.68;;
18302;SDS011;9277;37.980;23.748;2022-12-11T02:02:16;21.60;;;3.50;;
18302;SDS011;9277;37.980;23.748;2022-12-11T02:04:45;22.13;;;2.97;;
18302;SDS011;9277;37.980;23.748;2022-12-11T02:07:14;31.33;;;5.90;;
18302;SDS011;9277;37.980;23.748;2022-12-11T02:09:42;30.48;;;4.38;;
18302;SDS011;9277;37.980;23.748;2022-12-11T02:12:12;22.73;;;3.90;;
18302;SDS011;9277;37.980;23.748;2022-12-11T02:14:42;29.98;;;3.88;;
18302;SDS011;9277;37.980;23.748;2022-12-11T02:17:10;24.77;;;4.47;;
18302;SDS011;9277;37.980;23.748;2022-12-11T02:19:43;23.85;;;3.92;;
18302;SDS011;9277;37.980;23.748;2022-12-11T02:22:17;27.10;;;4.22;;
18302;SDS011;9277;37.980;23.748;2022-12-11T02:24:51;22.45;;;3.85;;
18302;SDS011;9277;37.980;23.748;2022-12-11T02:27:26;13.57;;;2.92;;
18302;SDS011;9277;37.980;23.748;2022-12-11T02:29:57;18.95;;;3.33;;
18302;SDS011;9277;37.980;23.748;2022-12-11T02:32:29;25.63;;;3.63;;
18302;SDS011;9277;37.980;23.748;2022-12-11T02:34:59;20.35;;;3.90;;
18302;SDS011;9277;37.980;23.748;2022-12-11T02:37:29;17.05;;;3.40;;
18302;SDS011;9277;37.980;23.748;2022-12-11T02:39:57;27.40;;;4.15;;
18302;SDS011;9277;37.980;23.748;2022-12-11T02:42:26;28.25;;;3.97;;
18302;SDS011;9277;37.980;23.748;2022-12-11T02:44:54;29.48;;;4.20;;
18302;SDS011;9277;37.980;23.748;2022-12-11T02:47:23;26.23;;;3.85;;
18302;SDS011;9277;37.980;23.748;2022-12-11T02:49:52;25.08;;;4.43;;
18302;SDS011;9277;37.980;23.748;2022-12-11T02:52:20;33.58;;;5.32;;
18302;SDS011;9277;37.980;23.748;2022-12-11T02:54:48;19.60;;;3.78;;
18302;SDS011;9277;37.980;23.748;2022-12-11T02:57:16;23.30;;;4.57;;
18302;SDS011;9277;37.980;23.748;2022-12-11T02:59:44;33.60;;;4.50;;
18302;SDS011;9277;37.980;23.748;2022-12-11T03:02:12;24.00;;;3.95;;
18302;SDS011;9277;37.980;23.748;2022-12-11T03:04:41;22.13;;;4.03;;
18302;SDS011;9277;37.980;23.748;2022-12-11T03:07:09;31.65;;;5.13;;
18302;SDS011;9277;37.980;23.748;2022-12-11T03:09:37;23.55;;;4.07;;
18302;SDS011;9277;37.980;23.748;2022-12-11T03:12:05;33.22;;;4.65;;
18302;SDS011;9277;37.980;23.748;2022-12-11T03:14:33;38.25;;;4.50;;
18302;SDS011;9277;37.980;23.748;2022-12-11T03:17:02;28.60;;;4.53;;
18302;SDS011;9277;37.980;23.748;2022-12-11T03:19:33;39.05;;;4.15;;
18302;SDS011;9277;37.980;23.748;2022-12-11T03:22:05;16.55;;;4.72;;
18302;SDS011;9277;37.980;23.748;2022-12-11T03:24:36;31.42;;;5.43;;
18302;SDS011;9277;37.980;23.748;2022-12-11T03:27:06;22.10;;;3.72;;
18302;SDS011;9277;37.980;23.748;2022-12-11T03:29:35;25.08;;;3.83;;
18302;SDS011;9277;37.980;23.748;2022-12-11T03:32:04;18.80;;;3.15;;
18302;SDS011;9277;37.980;23.748;2022-12-11T03:34:33;32.47;;;3.30;;
18302;SDS011;9277;37.980;23.748;2022-12-11T03:37:05;19.90;;;4.38;;
18302;SDS011;9277;37.980;23.748;2022-12-11T03:39:34;14.55;;;3.35;;
18302;SDS011;9277;37.980;23.748;2022-12-11T03:42:03;29.52;;;5.38;;
18302;SDS011;9277;37.980;23.748;2022-12-11T03:44:31;35.30;;;4.60;;
18302;SDS011;9277;37.980;23.748;2022-12-11T03:46:59;16.25;;;3.70;;
18302;SDS011;9277;37.980;23.748;2022-12-11T03:49:28;19.20;;;3.80;;
18302;SDS011;9277;37.980;23.748;2022-12-11T03:51:56;18.17;;;3.10;;
18302;SDS011;9277;37.980;23.748;2022-12-11T03:54:25;19.20;;;3.45;;
18302;SDS011;9277;37.980;23.748;2022-12-11T03:56:54;24.20;;;4.20;;
18302;SDS011;9277;37.980;23.748;2022-12-11T03:59:21;13.27;;;2.40;;
18302;SDS011;9277;37.980;23.748;2022-12-11T04:01:48;14.68;;;2.08;;
18302;SDS011;9277;37.980;23.748;2022-12-11T04:04:15;22.80;;;2.72;;
18302;SDS011;9277;37.980;23.748;2022-12-11T04:06:42;21.50;;;3.05;;
18302;SDS011;9277;37.980;23.748;2022-12-11T04:09:10;7.25;;;2.28;;
18302;SDS011;9277;37.980;23.748;2022-12-11T04:11:38;11.77;;;2.55;;
18302;SDS011;9277;37.980;23.748;2022-12-11T04:14:07;37.65;;;3.50;;
18302;SDS011;9277;37.980;23.748;2022-12-11T04:16:53;17.27;;;3.20;;
18302;SDS011;9277;37.980;23.748;2022-12-11T04:19:20;27.52;;;3.75;;
18302;SDS011;9277;37.980;23.748;2022-12-11T04:22:04;18.08;;;3.53;;
18302;SDS011;9277;37.980;23.748;2022-12-11T04:24:48;35.90;;;4.18;;
18302;SDS011;9277;37.980;23.748;2022-12-11T04:27:17;21.58;;;3.78;;
18302;SDS011;9277;37.980;23.748;2022-12-11T04:30:06;22.60;;;3.80;;
18302;SDS011;9277;37.980;23.748;2022-12-11T04:32:33;16.95;;;3.08;;
18302;SDS011;9277;37.980;23.748;2022-12-11T04:35:00;30.70;;;4.28;;
18302;SDS011;9277;37.980;23.748;2022-12-11T04:37:27;22.55;;;3.15;;
18302;SDS011;9277;37.980;23.748;2022-12-11T04:39:54;24.00;;;3.05;;
18302;SDS011;9277;37.980;23.748;2022-12-11T04:42:22;24.52;;;3.53;;
18302;SDS011;9277;37.980;23.748;2022-12-11T04:44:49;25.15;;;3.75;;
18302;SDS011;9277;37.980;23.748;2022-12-11T04:47:16;22.88;;;3.75;;
18302;SDS011;9277;37.980;23.748;2022-12-11T04:49:43;21.00;;;3.13;;
18302;SDS011;9277;37.980;23.748;2022-12-11T04:52:10;10.02;;;1.95;;
18302;SDS011;9277;37.980;23.748;2022-12-11T04:54:37;17.52;;;2.72;;
18302;SDS011;9277;37.980;23.748;2022-12-11T04:57:04;12.50;;;1.92;;
18302;SDS011;9277;37.980;23.748;2022-12-11T04:59:32;11.35;;;1.73;;
18302;SDS011;9277;37.980;23.748;2022-12-11T05:01:59;5.40;;;1.58;;
18302;SDS011;9277;37.980;23.748;2022-12-11T05:04:29;7.28;;;1.85;;
18302;SDS011;9277;37.980;23.748;2022-12-11T05:06:56;10.05;;;2.33;;
18302;SDS011;9277;37.980;23.748;2022-12-11T05:09:23;14.95;;;2.10;;
18302;SDS011;9277;37.980;23.748;2022-12-11T05:11:51;11.45;;;2.00;;
18302;SDS011;9277;37.980;23.748;2022-12-11T05:14:18;9.77;;;1.80;;
18302;SDS011;9277;37.980;23.748;2022-12-11T05:16:46;9.70;;;1.50;;
18302;SDS011;9277;37.980;23.748;2022-12-11T05:19:13;14.63;;;2.17;;
18302;SDS011;9277;37.980;23.748;2022-12-11T05:21:40;6.07;;;1.30;;
18302;SDS011;9277;37.980;23.748;2022-12-11T05:24:07;4.68;;;1.55;;
18302;SDS011;9277;37.980;23.748;2022-12-11T05:26:34;7.32;;;1.38;;
18302;SDS011;9277;37.980;23.748;2022-12-11T05:29:01;7.22;;;1.40;;
18302;SDS011;9277;37.980;23.748;2022-12-11T05:31:28;13.68;;;1.90;;
18302;SDS011;9277;37.980;23.748;2022-12-11T05:33:56;4.70;;;1.25;;
18302;SDS011;9277;37.980;23.748;2022-12-11T05:36:24;4.30;;;1.00;;
18302;SDS011;9277;37.980;23.748;2022-12-11T05:38:51;2.60;;;1.02;;
18302;SDS011;9277;37.980;23.748;2022-12-11T05:41:18;15.00;;;2.28;;
18302;SDS011;9277;37.980;23.748;2022-12-11T05:43:45;4.10;;;1.38;;
18302;SDS011;9277;37.980;23.748;2022-12-11T05:46:13;3.90;;;1.10;;
18302;SDS011;9277;37.980;23.748;2022-12-11T05:48:41;1.00;;;1.00;;
18302;SDS011;9277;37.980;23.748;2022-12-11T05:51:10;3.65;;;0.95;;
18302;SDS011;9277;37.980;23.748;2022-12-11T05:53:37;5.35;;;1.00;;
18302;SDS011;9277;37.980;23.748;2022-12-11T05:56:05;3.83;;;1.25;;
18302;SDS011;9277;37.980;23.748;2022-12-11T05:58:32;2.90;;;1.50;;
18302;SDS011;9277;37.980;23.748;2022-12-11T06:01:00;5.93;;;1.98;;
18302;SDS011;9277;37.980;23.748;2022-12-11T06:03:27;6.50;;;1.40;;
18302;SDS011;9277;37.980;23.748;2022-12-11T06:05:54;7.88;;;1.20;;
18302;SDS011;9277;37.980;23.748;2022-12-11T06:08:22;6.05;;;1.92;;
18302;SDS011;9277;37.980;23.748;2022-12-11T06:10:49;7.88;;;1.20;;
18302;SDS011;9277;37.980;23.748;2022-12-11T06:13:16;3.42;;;1.48;;
18302;SDS011;9277;37.980;23.748;2022-12-11T06:15:43;5.97;;;1.80;;
18302;SDS011;9277;37.980;23.748;2022-12-11T06:18:10;5.07;;;1.05;;
18302;SDS011;9277;37.980;23.748;2022-12-11T06:20:36;3.22;;;1.10;;
18302;SDS011;9277;37.980;23.748;2022-12-11T06:23:03;19.15;;;1.45;;
18302;SDS011;9277;37.980;23.748;2022-12-11T06:25:32;12.02;;;2.15;;
18302;SDS011;9277;37.980;23.748;2022-12-11T06:27:59;2.38;;;1.20;;
18302;SDS011;9277;37.980;23.748;2022-12-11T06:30:26;11.98;;;1.67;;
18302;SDS011;9277;37.980;23.748;2022-12-11T06:32:53;4.53;;;1.20;;
18302;SDS011;9277;37.980;23.748;2022-12-11T06:35:20;3.75;;;1.42;;
18302;SDS011;9277;37.980;23.748;2022-12-11T06:37:46;4.65;;;1.40;;
18302;SDS011;9277;37.980;23.748;2022-12-11T06:40:13;9.68;;;1.88;;
18302;SDS011;9277;37.980;23.748;2022-12-11T06:42:42;8.18;;;1.65;;
18302;SDS011;9277;37.980;23.748;2022-12-11T06:45:09;8.23;;;1.70;;
18302;SDS011;9277;37.980;23.748;2022-12-11T06:47:36;3.75;;;1.13;;
18302;SDS011;9277;37.980;23.748;2022-12-11T06:50:03;10.00;;;1.35;;
18302;SDS011;9277;37.980;23.748;2022-12-11T06:52:30;8.88;;;1.33;;
18302;SDS011;9277;37.980;23.748;2022-12-11T06:54:57;7.43;;;1.17;;
18302;SDS011;9277;37.980;23.748;2022-12-11T06:57:24;10.10;;;1.67;;
18302;SDS011;9277;37.980;23.748;2022-12-11T06:59:52;10.98;;;2.17;;
18302;SDS011;9277;37.980;23.748;2022-12-11T07:02:19;8.50;;;1.90;;
18302;SDS011;9277;37.980;23.748;2022-12-11T07:04:46;7.18;;;1.52;;
18302;SDS011;9277;37.980;23.748;2022-12-11T07:07:13;12.02;;;1.40;;
18302;SDS011;9277;37.980;23.748;2022-12-11T07:09:40;16.38;;;2.03;;
18302;SDS011;9277;37.980;23.748;2022-12-11T07:12:07;10.27;;;1.88;;
18302;SDS011;9277;37.980;23.748;2022-12-11T07:14:33;4.80;;;1.50;;
18302;SDS011;9277;37.980;23.748;2022-12-11T07:17:02;16.17;;;2.90;;
18302;SDS011;9277;37.980;23.748;2022-12-11T07:19:30;8.15;;;1.88;;
18302;SDS011;9277;37.980;23.748;2022-12-11T07:21:57;4.45;;;1.58;;
18302;SDS011;9277;37.980;23.748;2022-12-11T07:24:24;9.23;;;1.77;;
18302;SDS011;9277;37.980;23.748;2022-12-11T07:26:51;13.15;;;1.30;;
18302;SDS011;9277;37.980;23.748;2022-12-11T07:29:18;8.20;;;2.17;;
18302;SDS011;9277;37.980;23.748;2022-12-11T07:31:45;12.20;;;2.00;;
18302;SDS011;9277;37.980;23.748;2022-12-11T07:34:14;8.73;;;1.45;;
18302;SDS011;9277;37.980;23.748;2022-12-11T07:36:42;16.25;;;2.22;;
18302;SDS011;9277;37.980;23.748;2022-12-11T07:39:09;6.40;;;1.35;;
18302;SDS011;9277;37.980;23.748;2022-12-11T07:41:37;6.60;;;1.50;;
18302;SDS011;9277;37.980;23.748;2022-12-11T07:44:04;5.60;;;1.40;;
18302;SDS011;9277;37.980;23.748;2022-12-11T07:46:31;2.05;;;1.33;;
18302;SDS011;9277;37.980;23.748;2022-12-11T07:48:58;11.48;;;1.55;;
18302;SDS011;9277;37.980;23.748;2022-12-11T07:51:28;4.05;;;1.15;;
18302;SDS011;9277;37.980;23.748;2022-12-11T07:53:56;11.52;;;1.42;;
18302;SDS011;9277;37.980;23.748;2022-12-11T07:56:23;6.20;;;1.38;;
18302;SDS011;9277;37.980;23.748;2022-12-11T07:58:50;8.45;;;1.65;;
18302;SDS011;9277;37.980;23.748;2022-12-11T08:01:18;4.05;;;1.13;;
18302;SDS011;9277;37.980;23.748;2022-12-11T08:03:45;4.30;;;1.67;;
18302;SDS011;9277;37.980;23.748;2022-12-11T08:06:13;6.07;;;1.42;;
18302;SDS011;9277;37.980;23.748;2022-12-11T08:08:41;7.63;;;1.15;;
18302;SDS011;9277;37.980;23.748;2022-12-11T08:11:09;3.60;;;1.30;;
18302;SDS011;9277;37.980;23.748;2022-12-11T08:13:37;4.38;;;1.58;;
18302;SDS011;9277;37.980;23.748;2022-12-11T08:16:04;4.63;;;1.40;;
18302;SDS011;9277;37.980;23.748;2022-12-11T08:18:31;7.25;;;1.42;;
18302;SDS011;9277;37.980;23.748;2022-12-11T08:20:58;4.00;;;1.30;;
18302;SDS011;9277;37.980;23.748;2022-12-11T08:23:26;7.03;;;1.08;;
18302;SDS011;9277;37.980;23.748;2022-12-11T08:25:54;3.90;;;1.45;;
18302;SDS011;9277;37.980;23.748;2022-12-11T08:28:21;2.55;;;1.35;;
18302;SDS011;9277;37.980;23.748;2022-12-11T08:30:48;4.78;;;1.45;;
18302;SDS011;9277;37.980;23.748;2022-12-11T08:33:15;3.17;;;1.27;;
18302;SDS011;9277;37.980;23.748;2022-12-11T08:35:42;6.88;;;1.92;;
18302;SDS011;9277;37.980;23.748;2022-12-11T08:38:10;8.07;;;1.83;;
18302;SDS011;9277;37.980;23.748;2022-12-11T08:40:37;5.25;;;1.38;;
18302;SDS011;9277;37.980;23.748;2022-12-11T08:43:06;18.10;;;2.50;;
18302;SDS011;9277;37.980;23.748;2022-12-11T08:45:33;9.00;;;2.90;;
18302;SDS011;9277;37.980;23.748;2022-12-11T08:48:00;17.77;;;3.13;;
18302;SDS011;9277;37.980;23.748;2022-12-11T08:50:27;6.70;;;1.88;;
18302;SDS011;9277;37.980;23.748;2022-12-11T08:52:54;7.57;;;1.45;;
18302;SDS011;9277;37.980;23.748;2022-12-11T08:55:21;5.13;;;1.88;;
18302;SDS011;9277;37.980;23.748;2022-12-11T08:57:48;7.50;;;1.35;;
18302;SDS011;9277;37.980;23.748;2022-12-11T09:02:46;1.92;;;1.45;;
18302;SDS011;9277;37.980;23.748;2022-12-11T09:05:13;5.45;;;1.55;;
18302;SDS011;9277;37.980;23.748;2022-12-11T09:07:39;9.13;;;1.77;;
18302;SDS011;9277;37.980;23.748;2022-12-11T09:10:07;5.05;;;1.88;;
18302;SDS011;9277;37.980;23.748;2022-12-11T09:12:34;7.25;;;1.77;;
18302;SDS011;9277;37.980;23.748;2022-12-11T09:15:01;4.47;;;1.33;;
18302;SDS011;9277;37.980;23.748;2022-12-11T09:17:28;22.63;;;3.03;;
18302;SDS011;9277;37.980;23.748;2022-12-11T09:19:56;7.10;;;2.22;;
18302;SDS011;9277;37.980;23.748;2022-12-11T09:22:23;3.60;;;1.30;;
18302;SDS011;9277;37.980;23.748;2022-12-11T09:24:50;7.38;;;2.00;;
18302;SDS011;9277;37.980;23.748;2022-12-11T09:27:17;1.23;;;1.10;;
18302;SDS011;9277;37.980;23.748;2022-12-11T09:29:45;12.50;;;1.42;;
18302;SDS011;9277;37.980;23.748;2022-12-11T09:32:12;5.07;;;1.55;;
18302;SDS011;9277;37.980;23.748;2022-12-11T09:34:39;1.67;;;1.02;;
18302;SDS011;9277;37.980;23.748;2022-12-11T09:37:10;3.42;;;1.45;;
18302;SDS011;9277;37.980;23.748;2022-12-11T09:39:36;6.55;;;1.67;;
18302;SDS011;9277;37.980;23.748;2022-12-11T09:42:05;12.10;;;1.60;;
18302;SDS011;9277;37.980;23.748;2022-12-11T09:44:33;2.65;;;1.52;;
18302;SDS011;9277;37.980;23.748;2022-12-11T09:47:06;2.97;;;1.48;;
18302;SDS011;9277;37.980;23.748;2022-12-11T09:49:39;11.50;;;1.40;;
18302;SDS011;9277;37.980;23.748;2022-12-11T09:52:11;5.32;;;1.38;;
18302;SDS011;9277;37.980;23.748;2022-12-11T09:54:42;2.80;;;1.17;;
18302;SDS011;9277;37.980;23.748;2022-12-11T09:57:13;3.60;;;1.40;;
18302;SDS011;9277;37.980;23.748;2022-12-11T09:59:47;10.23;;;2.10;;
18302;SDS011;9277;37.980;23.748;2022-12-11T10:02:23;11.00;;;2.05;;
18302;SDS011;9277;37.980;23.748;2022-12-11T10:04:54;6.55;;;2.30;;
18302;SDS011;9277;37.980;23.748;2022-12-11T10:07:29;7.55;;;3.03;;
18302;SDS011;9277;37.980;23.748;2022-12-11T10:10:02;8.98;;;1.92;;
18302;SDS011;9277;37.980;23.748;2022-12-11T10:12:33;16.55;;;2.42;;
18302;SDS011;9277;37.980;23.748;2022-12-11T10:15:11;14.73;;;2.88;;
18302;SDS011;9277;37.980;23.748;2022-12-11T10:17:39;12.23;;;3.67;;
18302;SDS011;9277;37.980;23.748;2022-12-11T10:20:13;15.90;;;3.28;;
18302;SDS011;9277;37.980;23.748;2022-12-11T10:22:44;14.18;;;2.97;;
18302;SDS011;9277;37.980;23.748;2022-12-11T10:25:14;14.88;;;3.38;;
18302;SDS011;9277;37.980;23.748;2022-12-11T10:27:41;13.32;;;3.45;;
18302;SDS011;9277;37.980;23.748;2022-12-11T10:30:13;12.27;;;3.08;;
18302;SDS011;9277;37.980;23.748;2022-12-11T10:32:42;8.77;;;3.05;;
18302;SDS011;9277;37.980;23.748;2022-12-11T10:35:17;11.80;;;2.53;;
18302;SDS011;9277;37.980;23.748;2022-12-11T10:37:46;10.88;;;2.80;;
18302;SDS011;9277;37.980;23.748;2022-12-11T10:40:13;8.38;;;2.17;;
18302;SDS011;9277;37.980;23.748;2022-12-11T10:42:49;16.85;;;2.42;;
18302;SDS011;9277;37.980;23.748;2022-12-11T10:45:16;8.65;;;2.15;;
18302;SDS011;9277;37.980;23.748;2022-12-11T10:47:43;7.90;;;1.92;;
18302;SDS011;9277;37.980;23.748;2022-12-11T10:50:20;7.90;;;2.08;;
18302;SDS011;9277;37.980;23.748;2022-12-11T10:52:48;7.28;;;1.80;;
18302;SDS011;9277;37.980;23.748;2022-12-11T10:55:17;5.95;;;1.90;;
18302;SDS011;9277;37.980;23.748;2022-12-11T10:57:46;10.40;;;1.77;;
18302;SDS011;9277;37.980;23.748;2022-12-11T11:00:29;12.10;;;2.78;;
18302;SDS011;9277;37.980;23.748;2022-12-11T11:02:57;4.97;;;2.58;;
18302;SDS011;9277;37.980;23.748;2022-12-11T11:05:28;7.68;;;2.30;;
18302;SDS011;9277;37.980;23.748;2022-12-11T11:08:12;8.82;;;2.35;;
18302;SDS011;9277;37.980;23.748;2022-12-11T11:10:49;9.23;;;2.25;;
18302;SDS011;9277;37.980;23.748;2022-12-11T11:13:16;8.73;;;2.40;;
18302;SDS011;9277;37.980;23.748;2022-12-11T11:15:43;11.82;;;2.90;;
18302;SDS011;9277;37.980;23.748;2022-12-11T11:18:11;18.50;;;4.00;;
18302;SDS011;9277;37.980;23.748;2022-12-11T11:20:43;6.38;;;2.25;;
18302;SDS011;9277;37.980;23.748;2022-12-11T11:23:13;10.77;;;2.92;;
18302;SDS011;9277;37.980;23.748;2022-12-11T11:25:47;29.13;;;3.42;;
18302;SDS011;9277;37.980;23.748;2022-12-11T11:28:16;31.02;;;3.35;;
18302;SDS011;9277;37.980;23.748;2022-12-11T11:30:53;20.00;;;3.40;;
18302;SDS011;9277;37.980;23.748;2022-12-11T11:33:22;22.30;;;3.20;;
18302;SDS011;9277;37.980;23.748;2022-12-11T11:35:50;26.50;;;4.35;;
18302;SDS011;9277;37.980;23.748;2022-12-11T11:38:20;18.98;;;3.53;;
18302;SDS011;9277;37.980;23.748;2022-12-11T11:40:49;17.05;;;3.53;;
18302;SDS011;9277;37.980;23.748;2022-12-11T11:43:20;25.20;;;4.07;;
18302;SDS011;9277;37.980;23.748;2022-12-11T11:45:54;16.60;;;4.45;;
18302;SDS011;9277;37.980;23.748;2022-12-11T11:48:30;17.52;;;3.42;;
18302;SDS011;9277;37.980;23.748;2022-12-11T11:51:01;14.55;;;3.05;;
18302;SDS011;9277;37.980;23.748;2022-12-11T11:53:33;15.43;;;2.85;;
18302;SDS011;9277;37.980;23.748;2022-12-11T11:56:06;17.33;;;3.72;;
18302;SDS011;9277;37.980;23.748;2022-12-11T11:58:40;14.82;;;3.35;;
18302;SDS011;9277;37.980;23.748;2022-12-11T12:01:11;22.75;;;4.32;;
18302;SDS011;9277;37.980;23.748;2022-12-11T12:03:39;16.92;;;3.80;;
18302;SDS011;9277;37.980;23.748;2022-12-11T12:06:06;21.83;;;3.13;;
18302;SDS011;9277;37.980;23.748;2022-12-11T12:08:41;17.77;;;3.15;;
18302;SDS011;9277;37.980;23.748;2022-12-11T12:11:13;24.67;;;3.30;;
18302;SDS011;9277;37.980;23.748;2022-12-11T12:13:43;15.60;;;3.33;;
18302;SDS011;9277;37.980;23.748;2022-12-11T12:16:16;22.25;;;3.80;;
18302;SDS011;9277;37.980;23.748;2022-12-11T12:18:47;19.30;;;4.30;;
18302;SDS011;9277;37.980;23.748;2022-12-11T12:21:18;26.27;;;3.78;;
18302;SDS011;9277;37.980;23.748;2022-12-11T12:23:54;19.95;;;3.60;;
18302;SDS011;9277;37.980;23.748;2022-12-11T12:26:27;23.25;;;3.50;;
18302;SDS011;9277;37.980;23.748;2022-12-11T12:28:58;34.20;;;4.22;;
18302;SDS011;9277;37.980;23.748;2022-12-11T12:31:31;26.20;;;4.05;;
18302;SDS011;9277;37.980;23.748;2022-12-11T12:34:02;16.15;;;3.55;;
18302;SDS011;9277;37.980;23.748;2022-12-11T12:36:33;14.40;;;3.17;;
18302;SDS011;9277;37.980;23.748;2022-12-11T12:39:04;19.05;;;3.67;;
18302;SDS011;9277;37.980;23.748;2022-12-11T12:41:38;20.92;;;4.18;;
18302;SDS011;9277;37.980;23.748;2022-12-11T12:44:14;18.10;;;2.90;;
18302;SDS011;9277;37.980;23.748;2022-12-11T12:46:51;14.80;;;3.38;;
18302;SDS011;9277;37.980;23.748;2022-12-11T12:49:24;18.95;;;4.60;;
18302;SDS011;9277;37.980;23.748;2022-12-11T12:51:53;18.95;;;2.67;;
18302;SDS011;9277;37.980;23.748;2022-12-11T12:54:22;13.18;;;2.88;;
18302;SDS011;9277;37.980;23.748;2022-12-11T12:56:50;27.35;;;4.10;;
18302;SDS011;9277;37.980;23.748;2022-12-11T12:59:18;18.92;;;3.72;;
18302;SDS011;9277;37.980;23.748;2022-12-11T13:01:46;23.83;;;3.55;;
18302;SDS011;9277;37.980;23.748;2022-12-11T13:04:26;11.18;;;2.85;;
18302;SDS011;9277;37.980;23.748;2022-12-11T13:06:53;31.45;;;5.95;;
18302;SDS011;9277;37.980;23.748;2022-12-11T13:09:23;25.75;;;4.65;;
18302;SDS011;9277;37.980;23.748;2022-12-11T13:11:51;19.95;;;3.67;;
18302;SDS011;9277;37.980;23.748;2022-12-11T13:14:23;25.67;;;4.18;;
18302;SDS011;9277;37.980;23.748;2022-12-11T13:16:52;19.80;;;4.15;;
18302;SDS011;9277;37.980;23.748;2022-12-11T13:19:29;14.68;;;4.25;;
18302;SDS011;9277;37.980;23.748;2022-12-11T13:21:58;19.45;;;4.18;;
18302;SDS011;9277;37.980;23.748;2022-12-11T13:24:30;20.77;;;3.47;;
18302;SDS011;9277;37.980;23.748;2022-12-11T13:27:07;28.70;;;4.13;;
18302;SDS011;9277;37.980;23.748;2022-12-11T13:29:34;18.58;;;4.13;;
18302;SDS011;9277;37.980;23.748;2022-12-11T13:32:03;16.33;;;4.20;;
18302;SDS011;9277;37.980;23.748;2022-12-11T13:34:31;23.80;;;3.38;;
18302;SDS011;9277;37.980;23.748;2022-12-11T13:36:58;15.20;;;3.58;;
18302;SDS011;9277;37.980;23.748;2022-12-11T13:39:28;19.27;;;3.83;;
18302;SDS011;9277;37.980;23.748;2022-12-11T13:41:58;23.52;;;4.38;;
18302;SDS011;9277;37.980;23.748;2022-12-11T13:44:26;14.52;;;3.95;;
18302;SDS011;9277;37.980;23.748;2022-12-11T13:46:55;30.80;;;4.43;;
18302;SDS011;9277;37.980;23.748;2022-12-11T13:49:23;23.23;;;4.55;;
18302;SDS011;9277;37.980;23.748;2022-12-11T13:51:54;27.73;;;4.53;;
18302;SDS011;9277;37.980;23.748;2022-12-11T13:54:22;20.38;;;3.90;;
18302;SDS011;9277;37.980;23.748;2022-12-11T13:56:52;30.60;;;4.70;;
18302;SDS011;9277;37.980;23.748;2022-12-11T13:59:22;31.95;;;5.15;;
18302;SDS011;9277;37.980;23.748;2022-12-11T14:01:50;23.95;;;4.75;;
18302;SDS011;9277;37.980;23.748;2022-12-11T14:04:19;15.02;;;3.45;;
18302;SDS011;9277;37.980;23.748;2022-12-11T14:06:47;34.53;;;4.00;;
18302;SDS011;9277;37.980;23.748;2022-12-11T14:09:15;15.57;;;4.18;;
18302;SDS011;9277;37.980;23.748;2022-12-11T14:11:44;22.13;;;5.07;;
18302;SDS011;9277;37.980;23.748;2022-12-11T14:14:15;15.88;;;2.85;;
18302;SDS011;9277;37.980;23.748;2022-12-11T14:16:53;16.65;;;3.53;;
18302;SDS011;9277;37.980;23.748;2022-12-11T14:19:20;15.38;;;3.47;;
18302;SDS011;9277;37.980;23.748;2022-12-11T14:21:56;17.92;;;3.30;;
18302;SDS011;9277;37.980;23.748;2022-12-11T14:24:23;20.75;;;3.38;;
18302;SDS011;9277;37.980;23.748;2022-12-11T14:26:50;21.90;;;2.70;;
18302;SDS011;9277;37.980;23.748;2022-12-11T14:29:22;18.92;;;2.80;;
18302;SDS011;9277;37.980;23.748;2022-12-11T14:31:51;18.98;;;3.13;;
18302;SDS011;9277;37.980;23.748;2022-12-11T14:34:20;18.40;;;3.38;;
18302;SDS011;9277;37.980;23.748;2022-12-11T14:36:48;23.73;;;5.10;;
18302;SDS011;9277;37.980;23.748;2022-12-11T14:39:16;14.30;;;3.42;;
18302;SDS011;9277;37.980;23.748;2022-12-11T14:41:44;16.60;;;3.67;;
18302;SDS011;9277;37.980;23.748;2022-12-11T14:44:13;16.88;;;3.28;;
18302;SDS011;9277;37.980;23.748;2022-12-11T14:46:42;19.10;;;3.42;;
18302;SDS011;9277;37.980;23.748;2022-12-11T14:49:14;21.38;;;3.33;;
18302;SDS011;9277;37.980;23.748;2022-12-11T14:51:42;15.55;;;3.60;;
18302;SDS011;9277;37.980;23.748;2022-12-11T14:54:10;18.33;;;2.97;;